Latest Weather Observations for Loxton

IDS60801

Issued at 11:02 am CST Wednesday 22 April 2015 (issued every 30 minutes, with the page automatically refreshed every 10 minutes)

About weather observations | Map of weather stations | Latest weather observations for SA | Other Formats
Station Details ID: 024024 Name: LOXTON RESEARCH CENTRE Lat: -34.44 Lon: 140.60 Height: 30.1 m
Data from the previous 72 hours. | See also: Recent months at Loxton
Date/Time
CST
Temp
°C
App
Temp
°C
Dew
Point
Rel
Hum
%
Delta-T
°C
Wind Press
QNH
hPa
Press
MSL
hPa
Rain
since 9 am
mm
Dir
 
Spd
km/h
Gust
km/h
Spd
kts
Gust
kts
22/11:00am 16.7 13.6 5.4 47 5.4 S 11 24 6 13 1024.9 1024.9 0.0
22/10:30am 15.7 12.3 5.9 52 4.7 SSE 13 20 7 11 1025.5 1025.5 0.0
22/10:00am 15.1 11.9 6.9 58 4.0 SSE 13 17 7 9 1026.0 1026.0 0.0
22/09:30am 13.9 10.3 6.6 61 3.5 SSE 15 22 8 12 1026.4 1026.4 0.0
22/09:00am 12.5 8.5 6.6 67 2.8 SSE 17 20 9 11 1026.6 1026.6 0.0
22/08:30am 11.1 7.2 6.9 75 2.0 SSE 17 22 9 12 1026.6 1026.6 0.0
22/08:00am 9.8 6.6 6.8 81 1.4 SSE 13 19 7 10 1026.8 1026.8 0.0
22/07:30am 8.6 6.0 6.2 85 1.1 S 9 11 5 6 1026.7 1026.7 0.0
22/07:00am 7.5 4.9 5.9 90 0.7 S 9 11 5 6 1026.3 1026.3 0.0
22/06:30am 7.3 4.2 5.7 89 0.7 SSE 11 13 6 7 1025.9 1025.9 0.0
22/06:00am 7.5 4.1 5.7 88 0.8 SSE 13 15 7 8 1025.8 1025.8 0.0
22/05:30am 7.9 4.5 5.9 87 0.9 S 13 15 7 8 1026.0 1026.0 0.0
22/05:00am 8.1 5.1 6.1 87 0.9 S 11 13 6 7 1025.9 1025.9 0.0
22/04:30am 8.4 5.0 6.0 85 1.1 S 13 17 7 9 1025.8 1025.8 0.0
22/04:00am 8.7 5.3 6.1 84 1.2 S 13 17 7 9 1025.8 1025.8 0.0
22/03:30am 9.1 5.8 6.3 83 1.3 S 13 17 7 9 1025.9 1025.9 0.0
22/03:00am 9.6 5.9 6.1 79 1.6 S 15 20 8 11 1026.0 1026.0 0.0
22/02:30am 9.6 5.9 6.1 79 1.6 S 15 20 8 11 1026.1 1026.1 0.0
22/02:00am 9.8 6.5 6.3 79 1.6 S 13 17 7 9 1026.3 1026.3 0.0
22/01:30am 9.8 7.2 6.3 79 1.6 S 9 11 5 6 1026.5 1026.5 0.0
22/01:00am 9.9 6.6 6.2 78 1.7 S 13 15 7 8 1026.5 1026.5 0.0
22/12:30am 10.4 7.1 6.3 76 1.9 S 13 17 7 9 1026.4 1026.4 0.0
22/12:00am 10.4 7.5 6.3 76 1.9 S 11 15 6 8 1026.6 1026.6 0.0
 
Date/Time
CST
Temp
°C
App
Temp
°C
Dew
Point
Rel
Hum
%
Delta-T
°C
Wind Press
QNH
hPa
Press
MSL
hPa
Rain
since 9 am
mm
Dir
 
Spd
km/h
Gust
km/h
Spd
kts
Gust
kts
21/11:30pm 10.8 7.4 6.0 72 2.2 S 13 15 7 8 1026.8 1026.8 0.0
21/11:00pm 11.2 7.8 5.8 69 2.5 S 13 17 7 9 1027.2 1027.2 0.0
21/10:30pm 11.3 8.2 5.6 68 2.6 SSW 11 15 6 8 1027.4 1027.4 0.0
21/10:00pm 11.5 7.9 5.1 65 2.9 SW 13 15 7 8 1027.4 1027.4 0.0
21/09:30pm 11.8 8.6 5.0 63 3.1 SW 11 13 6 7 1027.5 1027.5 0.0
21/09:00pm 11.8 8.5 4.7 62 3.2 SW 11 13 6 7 1027.6 1027.6 0.0
21/08:30pm 12.1 8.8 4.3 59 3.5 SW 11 13 6 7 1027.5 1027.5 0.0
21/08:00pm 11.1 9.1 7.3 77 1.8 SSW 7 9 4 5 1027.6 1027.6 0.0
21/07:30pm 13.1 10.2 4.8 57 3.8 S 9 11 5 6 1027.7 1027.7 0.0
21/07:00pm 13.6 10.6 4.1 52 4.3 SSW 9 11 5 6 1027.9 1027.9 0.0
21/06:30pm 14.7 11.2 3.7 47 5.0 SSE 11 13 6 7 1027.8 1027.8 0.0
21/06:00pm 15.7 12.2 3.4 43 5.6 S 11 13 6 7 1027.7 1027.7 0.0
21/05:30pm 17.3 13.7 3.1 38 6.5 SSE 11 17 6 9 1027.5 1027.5 0.0
21/05:00pm 18.4 14.0 2.7 35 7.2 SE 15 20 8 11 1027.3 1027.3 0.0
21/04:30pm 18.9 13.5 1.5 31 7.8 SE 19 26 10 14 1027.3 1027.3 0.0
21/04:00pm 19.3 13.6 0.5 28 8.3 SSE 20 30 11 16 1027.3 1027.3 0.0
21/03:30pm 19.3 13.6 0.8 29 8.2 SSE 20 35 11 19 1027.5 1027.5 0.0
21/03:00pm 19.2 13.6 1.0 29 8.1 SSE 20 28 11 15 1027.6 1027.6 0.0
21/02:30pm 19.4 13.8 1.0 29 8.2 SSE 20 32 11 17 1027.9 1027.9 0.0
21/02:00pm 19.1 13.5 1.2 30 8.0 SE 20 30 11 16 1028.1 1028.1 0.0
21/01:30pm 18.9 13.3 1.5 31 7.8 SSE 20 30 11 16 1028.7 1028.7 0.0
21/01:00pm 18.0 12.5 1.6 33 7.4 SE 20 32 11 17 1029.1 1029.1 0.0
21/12:30pm 17.8 11.5 1.6 33 7.2 SSE 24 32 13 17 1029.8 1029.8 0.0
21/12:00pm 17.1 11.5 3.4 40 6.3 SSE 22 33 12 18 1030.4 1030.4 0.0
21/11:30am 16.6 10.7 4.1 43 5.8 SE 24 35 13 19 1031.2 1031.2 0.0
21/11:00am 15.6 9.8 4.3 47 5.3 SE 24 33 13 18 1031.9 1031.9 0.0
21/10:30am 14.8 9.0 4.6 50 4.7 SE 24 33 13 18 1032.4 1032.4 0.0
21/10:00am 14.5 9.2 4.8 52 4.5 SSE 22 32 12 17 1032.8 1032.8 0.0
21/09:30am 13.4 8.5 4.9 56 3.9 SSE 20 32 11 17 1033.0 1033.0 0.0
21/09:00am 11.9 6.9 4.8 62 3.2 SSE 20 28 11 15 1033.4 1033.4 0.0
21/08:30am 10.5 6.2 5.2 70 2.4 S 17 22 9 12 1033.7 1033.7 0.0
21/08:00am 9.1 5.2 5.3 77 1.7 S 15 20 8 11 1033.7 1033.7 0.0
21/07:30am 7.9 4.3 4.9 81 1.3 SSW 13 17 7 9 1033.3 1033.3 0.0
21/07:00am 6.9 3.3 4.8 86 0.9 S 13 17 7 9 1033.2 1033.2 0.0
21/06:30am 6.6 2.9 4.7 88 0.8 SSW 13 19 7 10 1033.1 1033.1 0.0
21/06:00am 6.8 3.1 4.7 86 0.9 SSW 13 19 7 10 1032.9 1032.9 0.0
21/05:30am 6.9 3.3 4.8 86 0.9 SSW 13 19 7 10 1033.0 1033.0 0.0
21/05:00am 7.1 3.5 4.8 85 1.0 SSW 13 17 7 9 1032.9 1032.9 0.0
21/04:30am 7.1 4.2 4.8 85 1.0 SSW 9 13 5 7 1032.9 1032.9 0.0
21/04:00am 7.4 4.1 4.6 82 1.2 S 11 17 6 9 1032.7 1032.7 0.0
21/03:30am 7.7 4.4 4.7 81 1.3 S 11 17 6 9 1032.7 1032.7 0.0
21/03:00am 7.9 4.6 4.7 80 1.4 S 11 15 6 8 1032.7 1032.7 0.0
21/02:30am 8.2 4.5 4.5 77 1.6 S 13 17 7 9 1032.9 1032.9 0.0
21/02:00am 8.4 4.7 4.5 76 1.7 S 13 19 7 10 1033.1 1033.1 0.0
21/01:30am 8.6 4.9 4.5 75 1.8 S 13 17 7 9 1033.4 1033.4 0.0
21/01:00am 9.1 5.8 4.5 73 2.0 SSE 11 15 6 8 1033.5 1033.5 0.0
21/12:30am 9.3 6.0 4.3 71 2.2 SSE 11 17 6 9 1033.7 1033.7 0.0
21/12:00am 9.8 6.0 4.1 67 2.5 S 13 17 7 9 1033.8 1033.8 0.0
 
Date/Time
CST
Temp
°C
App
Temp
°C
Dew
Point
Rel
Hum
%
Delta-T
°C
Wind Press
QNH
hPa
Press
MSL
hPa
Rain
since 9 am
mm
Dir
 
Spd
km/h
Gust
km/h
Spd
kts
Gust
kts
20/11:30pm 10.0 5.9 4.1 67 2.6 S 15 20 8 11 1033.8 1033.8 0.0
20/11:00pm 10.1 6.4 4.2 67 2.6 S 13 19 7 10 1034.0 1034.0 0.0
20/10:30pm 10.4 6.7 4.3 66 2.7 S 13 20 7 11 1034.1 1034.1 0.0
20/10:00pm 10.9 7.1 4.1 63 3.0 S 13 19 7 10 1034.3 1034.3 0.0
20/09:30pm 11.3 7.1 3.8 60 3.3 S 15 20 8 11 1034.2 1034.2 0.0
20/09:00pm 11.7 7.8 3.5 57 3.6 S 13 19 7 10 1034.1 1034.1 0.0
20/08:30pm 11.9 8.3 3.2 55 3.8 S 11 17 6 9 1034.1 1034.1 0.0
20/08:00pm 12.1 8.5 3.2 54 3.9 S 11 15 6 8 1034.1 1034.1 0.0
20/07:30pm 12.3 8.7 3.2 54 4.0 S 11 15 6 8 1034.2 1034.2 0.0
20/07:00pm 13.2 9.2 3.0 50 4.5 S 13 17 7 9 1033.9 1033.9 0.0
20/06:30pm 13.7 10.1 2.8 47 4.8 S 11 15 6 8 1033.7 1033.7 0.0
20/06:00pm 14.7 10.7 2.7 44 5.3 S 13 17 7 9 1033.5 1033.5 0.0
20/05:30pm 15.6 10.7 1.9 39 6.0 SSE 17 28 9 15 1033.4 1033.4 0.0
20/05:00pm 16.6 11.1 1.6 36 6.7 SSE 20 33 11 18 1033.1 1033.1 0.0
20/04:30pm 16.8 10.1 1.2 35 6.8 S 26 39 14 21 1033.0 1033.0 0.0
20/04:00pm 16.8 10.4 0.9 34 7.0 S 24 32 13 17 1033.0 1033.0 0.0
20/03:30pm 17.3 11.2 0.7 32 7.2 S 22 35 12 19 1033.0 1033.0 0.0
20/03:00pm 17.4 11.3 0.2 31 7.4 S 22 35 12 19 1033.1 1033.1 0.0
20/02:30pm 17.4 10.9 0.2 31 7.4 SSE 24 33 13 18 1033.5 1033.5 0.0
20/02:00pm 17.4 10.8 -0.2 30 7.6 SSE 24 35 13 19 1033.8 1033.8 0.0
20/01:30pm 16.5 10.3 0.0 32 7.0 S 22 35 12 19 1033.9 1033.9 0.0
20/01:00pm 16.1 9.9 0.0 33 6.9 SSE 22 37 12 20 1034.4 1034.4 0.0
20/12:30pm 15.9 9.7 0.0 34 6.7 SSE 22 33 12 18 1035.0 1035.0 0.0
20/12:00pm 15.7 9.1 -0.3 33 6.7 SE 24 33 13 18 1035.5 1035.5 0.0
20/11:30am 15.0 8.4 -0.1 35 6.3 SSE 24 33 13 18 1036.2 1036.2 0.0
20/11:00am 14.6 7.8 0.6 38 6.0 SSE 26 33 14 18 1036.7 1036.7 0.0
20/10:30am 13.8 6.6 0.7 41 5.5 SSE 28 39 15 21 1037.2 1037.2 0.0
20/10:00am 13.2 6.5 1.7 45 5.0 SE 26 39 14 21 1037.6 1037.6 0.0
20/09:30am 12.3 6.0 1.6 48 4.5 SSE 24 33 13 18 1037.8 1037.8 0.0
20/09:00am 11.1 5.9 2.4 55 3.7 SSE 19 26 10 14 1038.0 1038.0 0.0
20/08:30am 9.5 4.3 2.3 61 3.0 SSE 19 28 10 15 1038.1 1038.1 0.0
20/08:00am 8.1 3.3 2.5 68 2.3 SSE 17 22 9 12 1038.0 1038.0 0.0
20/07:30am 6.4 2.3 2.5 76 1.6 S 13 20 7 11 1037.7 1037.7 0.0
20/07:00am 5.1 1.4 2.3 82 1.1 S 11 15 6 8 1037.4 1037.4 0.0
20/06:30am 4.9 1.2 2.4 84 1.0 S 11 17 6 9 1037.3 1037.3 0.0
20/06:00am 5.0 1.3 2.2 82 1.1 S 11 15 6 8 1037.2 1037.2 0.0
20/05:30am 4.4 1.1 2.6 88 0.7 S 9 11 5 6 1037.0 1037.0 0.0
20/05:00am 4.3 1.4 2.8 90 0.6 SSE 7 9 4 5 1036.8 1036.8 0.0
20/04:30am 4.8 1.1 2.6 86 0.9 S 11 13 6 7 1036.8 1036.8 0.0
20/04:00am 5.1 1.4 2.3 82 1.1 S 11 13 6 7 1036.4 1036.4 0.0
20/03:30am 5.2 1.9 2.5 83 1.1 SSE 9 13 5 7 1036.2 1036.2 0.0
20/03:00am 5.6 1.9 2.4 80 1.3 S 11 13 6 7 1036.3 1036.3 0.0
20/02:30am 6.0 2.7 2.5 78 1.4 SSE 9 13 5 7 1036.3 1036.3 0.0
20/02:00am 6.4 2.3 2.2 74 1.7 SSE 13 15 7 8 1036.4 1036.4 0.0
20/01:30am 6.7 3.0 2.3 73 1.8 SSE 11 15 6 8 1036.4 1036.4 0.0
20/01:00am 7.4 3.6 2.0 68 2.2 SSE 11 17 6 9 1036.5 1036.5 0.0
20/12:30am 7.8 3.6 1.9 66 2.4 SSE 13 19 7 10 1036.4 1036.4 0.0
20/12:00am 8.1 4.0 2.0 65 2.5 SSE 13 17 7 9 1036.3 1036.3 0.0
 
Date/Time
CST
Temp
°C
App
Temp
°C
Dew
Point
Rel
Hum
%
Delta-T
°C
Wind Press
QNH
hPa
Press
MSL
hPa
Rain
since 9 am
mm
Dir
 
Spd
km/h
Gust
km/h
Spd
kts
Gust
kts
19/11:30pm 8.4 3.9 2.4 66 2.5 S 15 20 8 11 1036.1 1036.1 0.0
19/11:00pm 8.7 4.7 2.7 66 2.5 S 13 19 7 10 1036.1 1036.1 0.0
19/10:30pm 9.1 5.0 2.4 63 2.8 S 13 17 7 9 1036.1 1036.1 0.0
19/10:00pm 9.6 5.5 2.2 60 3.1 S 13 17 7 9 1035.9 1035.9 0.0
19/09:30pm 9.7 5.2 2.0 58 3.2 S 15 19 8 10 1035.7 1035.7 0.0
19/09:00pm 10.1 6.3 1.6 55 3.5 S 11 17 6 9 1035.3 1035.3 0.0
19/08:30pm 10.4 6.5 1.4 53 3.7 S 11 15 6 8 1035.1 1035.1 0.0
19/08:00pm 10.6 6.7 1.4 53 3.8 S 11 17 6 9 1034.8 1034.8 0.0
19/07:30pm 11.3 7.7 0.8 48 4.3 S 9 15 5 8 1034.4 1034.4 0.0
19/07:00pm 11.8 7.9 0.9 47 4.6 S 11 17 6 9 1034.0 1034.0 0.0
19/06:30pm 12.7 8.3 0.3 42 5.1 S 13 19 7 10 1033.5 1033.5 0.0
19/06:00pm 13.2 8.4 0.4 41 5.3 SSW 15 24 8 13 1033.0 1033.0 0.0
19/05:30pm 14.1 8.8 -0.5 36 6.0 S 17 24 9 13 1032.6 1032.6 0.0
19/05:00pm 15.0 9.0 -1.9 31 6.9 S 20 35 11 19 1032.3 1032.3 0.0
19/04:30pm 14.8 8.6 -0.4 35 6.3 S 22 35 12 19 1032.0 1032.0 0.0
19/04:00pm 16.3 10.0 -0.7 31 7.2 SSW 22 35 12 19 1031.8 1031.8 0.0
19/03:30pm 15.8 8.7 -1.6 30 7.1 S 26 43 14 23 1031.8 1031.8 0.0
19/03:00pm 16.6 10.4 -0.1 32 7.1 S 22 33 12 18 1031.6 1031.6 0.0
19/02:30pm 15.6 8.3 0.3 35 6.5 S 28 37 15 20 1031.5 1031.5 0.0
19/02:00pm 16.1 9.0 -1.1 31 7.2 S 26 39 14 21 1031.4 1031.4 0.0
19/01:30pm 15.4 9.1 1.3 38 6.1 SSE 24 35 13 19 1031.4 1031.4 0.0
19/01:00pm 15.5 8.5 1.8 39 6.0 SSE 28 37 15 20 1031.5 1031.5 0.0
19/12:30pm 15.6 9.4 1.9 39 6.0 SSE 24 35 13 19 1031.8 1031.8 0.0
19/12:00pm 15.7 9.6 2.7 41 5.8 SSE 24 41 13 22 1032.0 1032.0 0.0
19/11:30am 15.0 8.9 2.9 44 5.4 SSE 24 33 13 18 1031.9 1031.9 0.0

Other Formats:

Comma delimited format used in spreadsheet applications
http://www.bom.gov.au/fwo/IDS60801/IDS60801.94682.axf

JavaScript Object Notation format (JSON) in row-major order
http://www.bom.gov.au/fwo/IDS60801/IDS60801.94682.json